Port Heiden Airport

About
Name: Port Heiden Airport
Identifier:  PTH/PAPH
Serves:  Port Heiden, Alaska
Owner:  State of Alaska DOT&PF - Central Region
Public/Private:  Public
Local Time:  25. Aug 00:51 AKDT
Description: Port Heiden Airport is a state owned, public use airport located six nautical miles northeast of the central business district of Port Heiden, in the Lake and Peninsula Borough of the U.S. state of Alaska. Scheduled airline service to King Salmon Airport is provided by Peninsula Airways.
Source: Wikipedia
Location
Port Heiden
  United States

Runways
Identifier Length (m/ft) Surface
5/23 5,000/5,000 Gravel
13/31 4,000/4,000 Gravel
Flights per Day
0 flights
Distance: 224km (139mi)
Punctuality
50% (0 flights per day delayed)
Delay Average: 196 minutes
Current Weather
 9 C (Humidity: 100%)
  3kt (5km/h / 3mph) from 150°
  Scattered clouds at 1,700 feet (518 meter)
  14km (9 mi.)
 METAR PAPH 250756Z AUTO 15003KT 9SM SCT017 09/09 A2991 RMK AO2 SLP133 T00940089 401720078

Current Flights

Departures
Number Departure To Airline
Arrivals
Number Arrival From Airline

Current Delays

Departures
N/A
Arrivals
N/A

Destinations

Top Destinations
Airport Flights
per week
Seats
per week
  Anchorage (ANC) 0 - 0 0

Airlines & Planes

Top Airlines
Airline Flights
per Day
Seats
per Day
Alaska Central Express 0 -
Top Plane Types
Model Flights Seats
Beech 1900D 0.0/day - 0